Streator, Illinois
Current Conditions -  °F | °C
As of 7:35 AM on Saturday 20 Dec 2014 (Local Time) from KPNT Reporting Station
Haze Haze  
Wind Chill: 28°   Ceiling: 6500
Heat Index: 28°   Visibility: 4mi
Dew Point: 27°   Wind: 0mph
Humidity: 94%   Direction: NA
Pressure: 30.29"   Gusts: NA
Location:  41.12°N, 88.83°W
Report Text: KPNT 201335Z AUTO 00000KT 4SM BR BKN065 OVC070 M02/M03 A3029 RMK AO2 T10221030
Loading
Personal Weather Stations






























Interactive Weather Map New forecast layout! Learn more

10-Day Weather Forecast

Advertisements
Track Severe Weather on mobile